TimeCET,TemperatureF,Dew PointF,Humidity,Sea Level PressureIn,VisibilityMPH,Wind Direction,Wind SpeedMPH,Gust SpeedMPH,PrecipitationIn,Events,Conditions,WindDirDegrees,DateUTC
12:00 AM,49,43,73,30.06,25,SSW,13.4,,,Rain,Light Rain,210,2013-12-22 23:00:00
12:20 AM,48.2,42.8,82,30.06,6.2,SSW,15.0,-,N/A,,Mostly Cloudy,200,2013-12-22 23:20:00
12:50 AM,48.2,44.6,87,30.06,6.2,SSW,13.8,-,N/A,,Mostly Cloudy,200,2013-12-22 23:50:00
1:00 AM,48,43,78,30.08,31,SSW,13.4,,,,Partly Cloudy,200,2013-12-23 00:00:00
1:20 AM,48.2,42.8,82,30.06,6.2,SSW,13.8,-,N/A,,Mostly Cloudy,210,2013-12-23 00:20:00
1:50 AM,48.2,42.8,82,30.06,6.2,SSW,13.8,-,N/A,,Mostly Cloudy,200,2013-12-23 00:50:00
2:00 AM,48,42,75,30.09,31,SSW,13.4,,,,Mostly Cloudy,200,2013-12-23 01:00:00
2:20 AM,48.2,42.8,82,30.06,6.2,South,13.8,-,N/A,,Mostly Cloudy,190,2013-12-23 01:20:00
2:50 AM,48.2,42.8,82,30.09,6.2,SSW,16.1,-,N/A,Rain,Light Rain,210,2013-12-23 01:50:00
3:00 AM,48,43,77,30.11,31,SSW,15.7,,,Rain,Light Rain,210,2013-12-23 02:00:00
3:20 AM,48.2,42.8,82,30.09,6.2,SSW,15.0,-,N/A,,Scattered Clouds,210,2013-12-23 02:20:00
3:50 AM,48.2,41.0,76,30.09,6.2,SSW,16.1,-,N/A,,Mostly Cloudy,200,2013-12-23 02:50:00
4:20 AM,46.4,41.0,81,30.12,6.2,SSW,16.1,-,N/A,,Scattered Clouds,200,2013-12-23 03:20:00
4:50 AM,46.4,41.0,81,30.09,6.2,SSW,17.3,-,N/A,,Mostly Cloudy,210,2013-12-23 03:50:00
5:00 AM,46,40,72,30.12,31,SSW,17.9,,,,Scattered Clouds,210,2013-12-23 04:00:00
5:20 AM,46.4,39.2,76,30.12,-9999.0,SSW,15.0,27.6,N/A,,Clear,210,2013-12-23 04:20:00
5:50 AM,46.4,41.0,81,30.12,6.2,SSW,13.8,-,N/A,,Mostly Cloudy,210,2013-12-23 04:50:00
6:00 AM,46,40,73,30.13,31,SSW,13.4,,,,Scattered Clouds,210,2013-12-23 05:00:00
6:20 AM,46.4,41.0,81,30.12,6.2,SSW,11.5,-,N/A,,Mostly Cloudy,210,2013-12-23 05:20:00
6:50 AM,46.4,41.0,81,30.12,6.2,SSW,9.2,-,N/A,,Mostly Cloudy,200,2013-12-23 05:50:00
7:00 AM,46,41,75,30.14,31,SSW,8.9,,,,Partly Cloudy,200,2013-12-23 06:00:00
7:20 AM,46.4,41.0,81,30.12,6.2,SSW,10.4,23.0,N/A,,Mostly Cloudy,200,2013-12-23 06:20:00
7:50 AM,44.6,41.0,87,30.09,6.2,SSW,9.2,-,N/A,,Mostly Cloudy,200,2013-12-23 06:50:00
8:00 AM,46,41,77,30.12,31,SSW,8.9,,,,Scattered Clouds,200,2013-12-23 07:00:00
8:20 AM,44.6,42.8,93,30.09,6.2,SSW,8.1,-,N/A,,Mostly Cloudy,200,2013-12-23 07:20:00
8:50 AM,46.4,42.8,87,30.09,6.2,SSW,8.1,-,N/A,,Mostly Cloudy,200,2013-12-23 07:50:00
9:00 AM,46,42,80,30.13,25,SSW,8.9,,,,Partly Cloudy,200,2013-12-23 08:00:00
9:20 AM,46.4,42.8,87,30.09,6.2,SSW,8.1,-,N/A,,Mostly Cloudy,200,2013-12-23 08:20:00
9:50 AM,46.4,42.8,87,30.12,6.2,SW,9.2,-,N/A,,Mostly Cloudy,220,2013-12-23 08:50:00
10:20 AM,48.2,42.8,82,30.12,6.2,SW,8.1,-,N/A,,Mostly Cloudy,220,2013-12-23 09:20:00
10:50 AM,48.2,42.8,82,30.09,6.2,SSW,11.5,-,N/A,,Mostly Cloudy,210,2013-12-23 09:50:00
11:00 AM,48,42,73,30.12,25,SSW,11.2,,,,Partly Cloudy,210,2013-12-23 10:00:00
11:20 AM,48.2,42.8,82,30.09,6.2,SSW,11.5,-,N/A,,Mostly Cloudy,210,2013-12-23 10:20:00
11:50 AM,48.2,42.8,82,30.09,6.2,South,9.2,-,N/A,,Mostly Cloudy,190,2013-12-23 10:50:00
12:00 PM,49,43,74,30.11,25,South,8.9,,,,Mostly Cloudy,190,2013-12-23 11:00:00
12:20 PM,50.0,44.6,82,30.06,6.2,SSW,11.5,-,N/A,,Mostly Cloudy,200,2013-12-23 11:20:00
12:50 PM,50.0,42.8,76,30.06,6.2,SSW,11.5,-,N/A,,Mostly Cloudy,200,2013-12-23 11:50:00
1:00 PM,50,43,71,30.08,25,SSW,11.2,,,,Mostly Cloudy,200,2013-12-23 12:00:00
1:20 PM,50.0,44.6,82,30.04,6.2,SSW,13.8,-,N/A,,Mostly Cloudy,200,2013-12-23 12:20:00
1:50 PM,50.0,42.8,76,30.04,6.2,SSW,13.8,-,N/A,,Mostly Cloudy,200,2013-12-23 12:50:00
2:00 PM,50,43,69,30.05,25,SSW,13.4,,,,Mostly Cloudy,200,2013-12-23 13:00:00
2:20 PM,50.0,42.8,76,30.04,6.2,SSW,13.8,-,N/A,,Mostly Cloudy,200,2013-12-23 13:20:00
2:50 PM,51.8,42.8,71,30.01,6.2,SSW,13.8,-,N/A,,Mostly Cloudy,210,2013-12-23 13:50:00
3:00 PM,51,42,63,30.01,31,SSW,13.4,,,,Partly Cloudy,210,2013-12-23 14:00:00
3:20 PM,51.8,41.0,67,29.98,6.2,SSW,12.7,-,N/A,,Mostly Cloudy,200,2013-12-23 14:20:00
3:50 PM,50.0,41.0,71,29.98,6.2,SSW,9.2,-,N/A,,Mostly Cloudy,200,2013-12-23 14:50:00
4:20 PM,50.0,41.0,71,29.95,6.2,South,9.2,-,N/A,,Mostly Cloudy,180,2013-12-23 15:20:00
4:50 PM,50.0,42.8,76,29.95,6.2,South,8.1,-,N/A,,Mostly Cloudy,180,2013-12-23 15:50:00
5:00 PM,50,42,67,29.96,31,South,8.9,,,,Mostly Cloudy,180,2013-12-23 16:00:00
5:20 PM,50.0,42.8,76,29.95,6.2,South,10.4,-,N/A,,Mostly Cloudy,180,2013-12-23 16:20:00
5:50 PM,50.0,42.8,76,29.92,-9999.0,South,12.7,-,N/A,,Clear,190,2013-12-23 16:50:00
6:00 PM,50,44,71,29.94,31,South,13.4,,,,Partly Cloudy,190,2013-12-23 17:00:00
6:20 PM,50.0,42.8,76,29.92,-9999.0,South,11.5,-,N/A,,Clear,190,2013-12-23 17:20:00
6:50 PM,50.0,42.8,76,29.89,-9999.0,South,11.5,-,N/A,,Clear,190,2013-12-23 17:50:00
7:00 PM,50,43,69,29.91,31,South,11.2,,,,Scattered Clouds,190,2013-12-23 18:00:00
7:20 PM,50.0,42.8,76,29.86,-9999.0,South,12.7,-,N/A,,Clear,180,2013-12-23 18:20:00
7:50 PM,50.0,41.0,71,29.86,-9999.0,South,12.7,-,N/A,,Clear,180,2013-12-23 18:50:00
8:00 PM,51,42,61,29.87,31,South,13.4,,,,Partly Cloudy,180,2013-12-23 19:00:00
8:20 PM,50.0,41.0,71,29.83,-9999.0,South,11.5,-,N/A,,Clear,180,2013-12-23 19:20:00
8:50 PM,50.0,41.0,71,29.83,-9999.0,South,12.7,-,N/A,,Clear,190,2013-12-23 19:50:00
9:00 PM,50,41,63,29.85,31,South,13.4,,,,Partly Cloudy,190,2013-12-23 20:00:00
9:20 PM,50.0,41.0,71,29.83,-9999.0,South,11.5,-,N/A,,Clear,190,2013-12-23 20:20:00
9:50 PM,50.0,41.0,71,29.80,-9999.0,South,9.2,-,N/A,,Clear,190,2013-12-23 20:50:00
10:20 PM,50.0,41.0,71,29.80,-9999.0,South,10.4,-,N/A,,Clear,190,2013-12-23 21:20:00
10:50 PM,50.0,41.0,71,29.80,-9999.0,South,12.7,-,N/A,,Clear,190,2013-12-23 21:50:00
11:00 PM,50,40,60,29.81,31,South,11.2,,,,Scattered Clouds,190,2013-12-23 22:00:00
11:20 PM,48.2,41.0,76,29.77,-9999.0,South,11.5,-,N/A,,Clear,190,2013-12-23 22:20:00
11:50 PM,48.2,39.2,71,29.77,-9999.0,SSW,9.2,-,N/A,,Clear,200,2013-12-23 22:50:00